sensor_id;sensor_type;location;lat;lon;timestamp;temperature;humidity
77467;DHT22;66564;42.482;25.548;2023-05-20T00:00:10;15.82;59.48
77467;DHT22;66564;42.482;25.548;2023-05-20T00:02:36;15.79;59.56
77467;DHT22;66564;42.482;25.548;2023-05-20T00:05:01;15.82;59.71
77467;DHT22;66564;42.482;25.548;2023-05-20T00:07:27;15.85;59.34
77467;DHT22;66564;42.482;25.548;2023-05-20T00:09:52;15.76;59.51
77467;DHT22;66564;42.482;25.548;2023-05-20T00:12:18;15.75;59.44
77467;DHT22;66564;42.482;25.548;2023-05-20T00:14:43;15.79;59.30
77467;DHT22;66564;42.482;25.548;2023-05-20T00:17:09;15.75;59.54
77467;DHT22;66564;42.482;25.548;2023-05-20T00:19:34;15.75;59.66
77467;DHT22;66564;42.482;25.548;2023-05-20T00:22:00;15.78;60.35
77467;DHT22;66564;42.482;25.548;2023-05-20T00:24:26;15.79;59.52
77467;DHT22;66564;42.482;25.548;2023-05-20T00:26:51;15.78;59.67
77467;DHT22;66564;42.482;25.548;2023-05-20T00:29:16;15.81;59.57
77467;DHT22;66564;42.482;25.548;2023-05-20T00:31:42;15.79;59.82
77467;DHT22;66564;42.482;25.548;2023-05-20T00:34:08;15.75;60.15
77467;DHT22;66564;42.482;25.548;2023-05-20T00:36:34;15.76;60.16
77467;DHT22;66564;42.482;25.548;2023-05-20T00:39:00;15.76;60.21
77467;DHT22;66564;42.482;25.548;2023-05-20T00:41:25;15.76;60.20
77467;DHT22;66564;42.482;25.548;2023-05-20T00:43:55;15.76;60.16
77467;DHT22;66564;42.482;25.548;2023-05-20T00:46:22;15.79;60.78
77467;DHT22;66564;42.482;25.548;2023-05-20T00:48:48;15.86;60.58
77467;DHT22;66564;42.482;25.548;2023-05-20T00:51:15;15.82;60.35
77467;DHT22;66564;42.482;25.548;2023-05-20T00:53:41;15.85;60.45
77467;DHT22;66564;42.482;25.548;2023-05-20T00:56:07;15.85;61.34
77467;DHT22;66564;42.482;25.548;2023-05-20T00:58:34;15.87;60.86
77467;DHT22;66564;42.482;25.548;2023-05-20T01:01:01;15.90;60.83
77467;DHT22;66564;42.482;25.548;2023-05-20T01:03:27;15.87;60.86
77467;DHT22;66564;42.482;25.548;2023-05-20T01:05:53;15.83;60.95
77467;DHT22;66564;42.482;25.548;2023-05-20T01:08:19;15.70;61.70
77467;DHT22;66564;42.482;25.548;2023-05-20T01:10:46;15.66;61.85
77467;DHT22;66564;42.482;25.548;2023-05-20T01:13:17;15.69;62.03
77467;DHT22;66564;42.482;25.548;2023-05-20T01:15:45;15.73;61.80
77467;DHT22;66564;42.482;25.548;2023-05-20T01:18:13;15.69;62.09
77467;DHT22;66564;42.482;25.548;2023-05-20T01:20:45;15.70;61.55
77467;DHT22;66564;42.482;25.548;2023-05-20T01:23:12;15.72;61.95
77467;DHT22;66564;42.482;25.548;2023-05-20T01:25:37;15.67;62.50
77467;DHT22;66564;42.482;25.548;2023-05-20T01:28:03;15.72;62.14
77467;DHT22;66564;42.482;25.548;2023-05-20T01:30:33;15.73;62.91
77467;DHT22;66564;42.482;25.548;2023-05-20T01:33:09;15.75;62.47
77467;DHT22;66564;42.482;25.548;2023-05-20T01:35:36;15.76;61.65
77467;DHT22;66564;42.482;25.548;2023-05-20T01:38:04;15.70;61.95
77467;DHT22;66564;42.482;25.548;2023-05-20T01:40:31;15.73;62.51
77467;DHT22;66564;42.482;25.548;2023-05-20T01:42:58;15.81;62.38
77467;DHT22;66564;42.482;25.548;2023-05-20T01:45:24;15.82;62.14
77467;DHT22;66564;42.482;25.548;2023-05-20T01:47:49;15.82;62.05
77467;DHT22;66564;42.482;25.548;2023-05-20T01:50:15;15.86;61.91
77467;DHT22;66564;42.482;25.548;2023-05-20T01:52:41;15.87;61.93
77467;DHT22;66564;42.482;25.548;2023-05-20T01:55:07;15.90;61.95
77467;DHT22;66564;42.482;25.548;2023-05-20T01:57:32;15.89;61.75
77467;DHT22;66564;42.482;25.548;2023-05-20T01:59:58;15.90;61.88
77467;DHT22;66564;42.482;25.548;2023-05-20T02:02:23;15.89;61.89
77467;DHT22;66564;42.482;25.548;2023-05-20T02:04:50;15.87;61.82
77467;DHT22;66564;42.482;25.548;2023-05-20T02:07:16;15.89;61.08
77467;DHT22;66564;42.482;25.548;2023-05-20T02:09:46;15.87;60.94
77467;DHT22;66564;42.482;25.548;2023-05-20T02:12:12;15.87;61.45
77467;DHT22;66564;42.482;25.548;2023-05-20T02:14:47;15.89;61.94
77467;DHT22;66564;42.482;25.548;2023-05-20T02:17:15;15.92;61.87
77467;DHT22;66564;42.482;25.548;2023-05-20T02:19:42;15.90;61.81
77467;DHT22;66564;42.482;25.548;2023-05-20T02:22:08;15.90;61.70
77467;DHT22;66564;42.482;25.548;2023-05-20T02:24:34;15.93;61.72
77467;DHT22;66564;42.482;25.548;2023-05-20T02:27:00;15.93;62.03
77467;DHT22;66564;42.482;25.548;2023-05-20T02:29:27;15.95;62.00
77467;DHT22;66564;42.482;25.548;2023-05-20T02:31:52;15.93;61.87
77467;DHT22;66564;42.482;25.548;2023-05-20T02:34:19;15.95;61.45
77467;DHT22;66564;42.482;25.548;2023-05-20T02:36:45;15.95;61.54
77467;DHT22;66564;42.482;25.548;2023-05-20T02:39:10;15.97;61.13
77467;DHT22;66564;42.482;25.548;2023-05-20T02:41:37;15.95;61.01
77467;DHT22;66564;42.482;25.548;2023-05-20T02:44:02;15.95;60.75
77467;DHT22;66564;42.482;25.548;2023-05-20T02:46:28;15.95;60.76
77467;DHT22;66564;42.482;25.548;2023-05-20T02:48:53;15.93;61.12
77467;DHT22;66564;42.482;25.548;2023-05-20T02:51:19;15.96;61.34
77467;DHT22;66564;42.482;25.548;2023-05-20T02:53:45;15.97;61.19
77467;DHT22;66564;42.482;25.548;2023-05-20T02:56:10;15.93;60.90
77467;DHT22;66564;42.482;25.548;2023-05-20T02:58:37;15.97;61.07
77467;DHT22;66564;42.482;25.548;2023-05-20T03:01:03;15.95;61.00
77467;DHT22;66564;42.482;25.548;2023-05-20T03:03:29;15.95;61.06
77467;DHT22;66564;42.482;25.548;2023-05-20T03:05:54;15.95;61.51
77467;DHT22;66564;42.482;25.548;2023-05-20T03:08:21;15.90;61.31
77467;DHT22;66564;42.482;25.548;2023-05-20T03:10:47;15.85;61.47
77467;DHT22;66564;42.482;25.548;2023-05-20T03:13:13;15.87;61.68
77467;DHT22;66564;42.482;25.548;2023-05-20T03:15:43;15.86;61.80
77467;DHT22;66564;42.482;25.548;2023-05-20T03:18:14;15.82;62.27
77467;DHT22;66564;42.482;25.548;2023-05-20T03:20:40;15.83;62.37
77467;DHT22;66564;42.482;25.548;2023-05-20T03:23:08;15.70;62.62
77467;DHT22;66564;42.482;25.548;2023-05-20T03:25:35;15.59;62.71
77467;DHT22;66564;42.482;25.548;2023-05-20T03:28:01;15.62;63.10
77467;DHT22;66564;42.482;25.548;2023-05-20T03:30:27;15.59;63.72
77467;DHT22;66564;42.482;25.548;2023-05-20T03:32:52;15.54;63.53
77467;DHT22;66564;42.482;25.548;2023-05-20T03:35:18;15.55;63.80
77467;DHT22;66564;42.482;25.548;2023-05-20T03:37:44;15.55;63.77
77467;DHT22;66564;42.482;25.548;2023-05-20T03:40:09;15.58;63.90
77467;DHT22;66564;42.482;25.548;2023-05-20T03:42:36;15.54;64.33
77467;DHT22;66564;42.482;25.548;2023-05-20T03:45:02;15.55;64.37
77467;DHT22;66564;42.482;25.548;2023-05-20T03:47:27;15.55;64.20
77467;DHT22;66564;42.482;25.548;2023-05-20T03:49:54;15.58;64.12
77467;DHT22;66564;42.482;25.548;2023-05-20T03:52:22;15.61;64.64
77467;DHT22;66564;42.482;25.548;2023-05-20T03:54:48;15.61;64.60
77467;DHT22;66564;42.482;25.548;2023-05-20T03:57:14;15.62;64.57
77467;DHT22;66564;42.482;25.548;2023-05-20T03:59:39;15.63;64.77
77467;DHT22;66564;42.482;25.548;2023-05-20T04:02:05;15.61;65.11
77467;DHT22;66564;42.482;25.548;2023-05-20T04:04:30;15.61;64.78
77467;DHT22;66564;42.482;25.548;2023-05-20T04:06:57;15.61;65.11
77467;DHT22;66564;42.482;25.548;2023-05-20T04:09:25;15.61;65.14
77467;DHT22;66564;42.482;25.548;2023-05-20T04:11:52;15.51;64.91
77467;DHT22;66564;42.482;25.548;2023-05-20T04:14:17;15.52;64.75
77467;DHT22;66564;42.482;25.548;2023-05-20T04:16:51;15.56;64.88
77467;DHT22;66564;42.482;25.548;2023-05-20T04:19:16;15.66;65.38
77467;DHT22;66564;42.482;25.548;2023-05-20T04:21:45;15.66;66.24
77467;DHT22;66564;42.482;25.548;2023-05-20T04:24:10;15.69;66.66
77467;DHT22;66564;42.482;25.548;2023-05-20T04:26:36;15.76;66.36
77467;DHT22;66564;42.482;25.548;2023-05-20T04:29:03;15.76;66.12
77467;DHT22;66564;42.482;25.548;2023-05-20T04:31:29;15.76;65.43
77467;DHT22;66564;42.482;25.548;2023-05-20T04:33:55;15.78;66.31
77467;DHT22;66564;42.482;25.548;2023-05-20T04:36:21;15.85;66.17
77467;DHT22;66564;42.482;25.548;2023-05-20T04:38:46;15.89;66.17
77467;DHT22;66564;42.482;25.548;2023-05-20T04:41:12;15.92;66.82
77467;DHT22;66564;42.482;25.548;2023-05-20T04:43:38;15.95;67.41
77467;DHT22;66564;42.482;25.548;2023-05-20T04:46:04;16.05;66.99
77467;DHT22;66564;42.482;25.548;2023-05-20T04:48:33;16.09;67.31
77467;DHT22;66564;42.482;25.548;2023-05-20T04:50:59;16.14;67.37
77467;DHT22;66564;42.482;25.548;2023-05-20T04:53:24;16.13;66.79
77467;DHT22;66564;42.482;25.548;2023-05-20T04:55:53;16.19;67.12
77467;DHT22;66564;42.482;25.548;2023-05-20T04:58:19;16.20;66.55
77467;DHT22;66564;42.482;25.548;2023-05-20T05:00:48;16.23;64.90
77467;DHT22;66564;42.482;25.548;2023-05-20T05:03:14;16.23;63.43
77467;DHT22;66564;42.482;25.548;2023-05-20T05:05:40;16.17;63.79
77467;DHT22;66564;42.482;25.548;2023-05-20T05:08:07;16.20;64.07
77467;DHT22;66564;42.482;25.548;2023-05-20T05:10:33;16.21;64.08
77467;DHT22;66564;42.482;25.548;2023-05-20T05:12:59;16.29;64.41
77467;DHT22;66564;42.482;25.548;2023-05-20T05:15:25;16.27;64.19
77467;DHT22;66564;42.482;25.548;2023-05-20T05:17:50;16.33;64.32
77467;DHT22;66564;42.482;25.548;2023-05-20T05:20:16;16.33;63.82
77467;DHT22;66564;42.482;25.548;2023-05-20T05:22:42;16.39;63.86
77467;DHT22;66564;42.482;25.548;2023-05-20T05:25:09;16.44;64.54
77467;DHT22;66564;42.482;25.548;2023-05-20T05:27:35;16.53;65.03
77467;DHT22;66564;42.482;25.548;2023-05-20T05:30:01;16.59;64.45
77467;DHT22;66564;42.482;25.548;2023-05-20T05:32:27;16.68;64.33
77467;DHT22;66564;42.482;25.548;2023-05-20T05:34:52;16.72;64.25
77467;DHT22;66564;42.482;25.548;2023-05-20T05:37:18;16.78;64.16
77467;DHT22;66564;42.482;25.548;2023-05-20T05:39:43;16.80;64.13
77467;DHT22;66564;42.482;25.548;2023-05-20T05:42:09;16.78;64.19
77467;DHT22;66564;42.482;25.548;2023-05-20T05:44:35;16.87;64.68
77467;DHT22;66564;42.482;25.548;2023-05-20T05:47:00;16.98;63.97
77467;DHT22;66564;42.482;25.548;2023-05-20T05:49:26;17.05;64.07
77467;DHT22;66564;42.482;25.548;2023-05-20T05:51:51;17.25;64.14
77467;DHT22;66564;42.482;25.548;2023-05-20T05:54:17;17.40;64.08
77467;DHT22;66564;42.482;25.548;2023-05-20T05:56:44;17.61;63.43
77467;DHT22;66564;42.482;25.548;2023-05-20T05:59:10;17.80;64.38
77467;DHT22;66564;42.482;25.548;2023-05-20T06:01:35;18.00;64.64
77467;DHT22;66564;42.482;25.548;2023-05-20T06:04:01;18.24;62.18
77467;DHT22;66564;42.482;25.548;2023-05-20T06:06:27;18.47;61.90
77467;DHT22;66564;42.482;25.548;2023-05-20T06:08:52;18.67;58.26
77467;DHT22;66564;42.482;25.548;2023-05-20T06:11:18;18.83;56.93
77467;DHT22;66564;42.482;25.548;2023-05-20T06:13:43;19.12;58.39
77467;DHT22;66564;42.482;25.548;2023-05-20T06:16:09;19.30;57.28
77467;DHT22;66564;42.482;25.548;2023-05-20T06:18:34;19.55;56.04
77467;DHT22;66564;42.482;25.548;2023-05-20T06:21:00;19.73;56.91
77467;DHT22;66564;42.482;25.548;2023-05-20T06:23:25;19.83;55.58
77467;DHT22;66564;42.482;25.548;2023-05-20T06:25:51;19.92;55.14
77467;DHT22;66564;42.482;25.548;2023-05-20T06:28:16;19.93;55.70
77467;DHT22;66564;42.482;25.548;2023-05-20T06:30:42;19.97;54.87
77467;DHT22;66564;42.482;25.548;2023-05-20T06:33:08;20.00;55.16
77467;DHT22;66564;42.482;25.548;2023-05-20T06:35:34;20.06;53.69
77467;DHT22;66564;42.482;25.548;2023-05-20T06:38:00;20.16;53.78
77467;DHT22;66564;42.482;25.548;2023-05-20T06:40:26;20.14;52.55
77467;DHT22;66564;42.482;25.548;2023-05-20T06:42:52;19.96;52.64
77467;DHT22;66564;42.482;25.548;2023-05-20T06:45:17;20.21;53.48
77467;DHT22;66564;42.482;25.548;2023-05-20T06:47:44;20.37;54.25
77467;DHT22;66564;42.482;25.548;2023-05-20T06:50:10;20.57;53.66
77467;DHT22;66564;42.482;25.548;2023-05-20T06:52:36;20.72;52.50
77467;DHT22;66564;42.482;25.548;2023-05-20T06:55:02;20.92;50.71
77467;DHT22;66564;42.482;25.548;2023-05-20T06:57:28;20.96;51.02
77467;DHT22;66564;42.482;25.548;2023-05-20T06:59:55;20.82;49.34
77467;DHT22;66564;42.482;25.548;2023-05-20T07:02:22;20.82;49.80
77467;DHT22;66564;42.482;25.548;2023-05-20T07:04:48;20.78;51.10
77467;DHT22;66564;42.482;25.548;2023-05-20T07:07:13;20.79;51.99
77467;DHT22;66564;42.482;25.548;2023-05-20T07:09:39;20.69;51.43
77467;DHT22;66564;42.482;25.548;2023-05-20T07:12:05;20.71;52.79
77467;DHT22;66564;42.482;25.548;2023-05-20T07:14:31;20.75;52.94
77467;DHT22;66564;42.482;25.548;2023-05-20T07:16:56;20.91;53.35
77467;DHT22;66564;42.482;25.548;2023-05-20T07:19:22;20.85;51.36
77467;DHT22;66564;42.482;25.548;2023-05-20T07:21:47;20.99;51.50
77467;DHT22;66564;42.482;25.548;2023-05-20T07:24:17;21.18;50.35
77467;DHT22;66564;42.482;25.548;2023-05-20T07:26:42;21.28;52.08
77467;DHT22;66564;42.482;25.548;2023-05-20T07:29:11;21.43;50.72
77467;DHT22;66564;42.482;25.548;2023-05-20T07:31:36;21.57;50.95
77467;DHT22;66564;42.482;25.548;2023-05-20T07:34:02;21.66;49.86
77467;DHT22;66564;42.482;25.548;2023-05-20T07:36:28;21.70;49.56
77467;DHT22;66564;42.482;25.548;2023-05-20T07:38:53;21.64;47.83
77467;DHT22;66564;42.482;25.548;2023-05-20T07:41:19;21.56;48.89
77467;DHT22;66564;42.482;25.548;2023-05-20T07:43:47;21.39;49.16
77467;DHT22;66564;42.482;25.548;2023-05-20T07:46:12;21.28;49.53
77467;DHT22;66564;42.482;25.548;2023-05-20T07:48:38;21.32;49.73
77467;DHT22;66564;42.482;25.548;2023-05-20T07:51:04;21.18;49.61
77467;DHT22;66564;42.482;25.548;2023-05-20T07:53:29;21.12;49.35
77467;DHT22;66564;42.482;25.548;2023-05-20T07:55:55;20.96;48.57
77467;DHT22;66564;42.482;25.548;2023-05-20T07:58:21;20.69;48.10
77467;DHT22;66564;42.482;25.548;2023-05-20T08:00:46;20.63;49.07
77467;DHT22;66564;42.482;25.548;2023-05-20T08:03:12;20.45;49.86
77467;DHT22;66564;42.482;25.548;2023-05-20T08:05:40;20.28;51.10
77467;DHT22;66564;42.482;25.548;2023-05-20T08:08:06;20.30;50.60
77467;DHT22;66564;42.482;25.548;2023-05-20T08:10:31;20.20;50.44
77467;DHT22;66564;42.482;25.548;2023-05-20T08:12:57;20.21;50.27
77467;DHT22;66564;42.482;25.548;2023-05-20T08:15:23;20.14;50.54
77467;DHT22;66564;42.482;25.548;2023-05-20T08:17:48;20.00;51.04
77467;DHT22;66564;42.482;25.548;2023-05-20T08:20:14;20.03;52.52
77467;DHT22;66564;42.482;25.548;2023-05-20T08:22:39;20.07;51.85
77467;DHT22;66564;42.482;25.548;2023-05-20T08:25:08;20.04;51.24
77467;DHT22;66564;42.482;25.548;2023-05-20T08:27:35;20.09;51.40
77467;DHT22;66564;42.482;25.548;2023-05-20T08:30:01;19.96;50.92
77467;DHT22;66564;42.482;25.548;2023-05-20T08:32:29;19.97;52.26
77467;DHT22;66564;42.482;25.548;2023-05-20T08:34:55;20.04;52.61
77467;DHT22;66564;42.482;25.548;2023-05-20T08:37:21;20.09;52.28
77467;DHT22;66564;42.482;25.548;2023-05-20T08:39:47;20.27;52.70
77467;DHT22;66564;42.482;25.548;2023-05-20T08:42:14;20.43;53.67
77467;DHT22;66564;42.482;25.548;2023-05-20T08:44:44;20.57;53.65
77467;DHT22;66564;42.482;25.548;2023-05-20T08:47:11;20.72;53.15
77467;DHT22;66564;42.482;25.548;2023-05-20T08:49:37;20.78;52.27
77467;DHT22;66564;42.482;25.548;2023-05-20T08:52:03;20.87;51.65
77467;DHT22;66564;42.482;25.548;2023-05-20T08:54:42;20.85;50.77
77467;DHT22;66564;42.482;25.548;2023-05-20T08:57:09;20.85;50.96
77467;DHT22;66564;42.482;25.548;2023-05-20T08:59:42;20.82;52.15
77467;DHT22;66564;42.482;25.548;2023-05-20T09:02:08;20.82;52.18
77467;DHT22;66564;42.482;25.548;2023-05-20T09:04:35;20.87;51.09
77467;DHT22;66564;42.482;25.548;2023-05-20T09:07:00;20.84;52.12
77467;DHT22;66564;42.482;25.548;2023-05-20T09:09:26;20.75;51.85
77467;DHT22;66564;42.482;25.548;2023-05-20T09:11:52;20.75;51.34
77467;DHT22;66564;42.482;25.548;2023-05-20T09:14:17;20.69;51.87
77467;DHT22;66564;42.482;25.548;2023-05-20T09:16:43;20.61;51.86
77467;DHT22;66564;42.482;25.548;2023-05-20T09:19:09;20.54;53.01
77467;DHT22;66564;42.482;25.548;2023-05-20T09:21:35;20.38;52.81
77467;DHT22;66564;42.482;25.548;2023-05-20T09:24:01;20.35;53.07
77467;DHT22;66564;42.482;25.548;2023-05-20T09:26:27;20.30;52.92
77467;DHT22;66564;42.482;25.548;2023-05-20T09:28:58;20.23;53.08
77467;DHT22;66564;42.482;25.548;2023-05-20T09:31:29;20.18;52.73
77467;DHT22;66564;42.482;25.548;2023-05-20T09:33:55;20.14;53.47
77467;DHT22;66564;42.482;25.548;2023-05-20T09:36:22;20.09;53.30
77467;DHT22;66564;42.482;25.548;2023-05-20T09:38:51;19.87;53.45
77467;DHT22;66564;42.482;25.548;2023-05-20T09:41:22;19.83;53.42
77467;DHT22;66564;42.482;25.548;2023-05-20T09:43:49;19.74;54.46
77467;DHT22;66564;42.482;25.548;2023-05-20T09:46:16;19.69;54.74
77467;DHT22;66564;42.482;25.548;2023-05-20T09:48:43;19.60;54.16
77467;DHT22;66564;42.482;25.548;2023-05-20T09:51:09;19.52;54.82
77467;DHT22;66564;42.482;25.548;2023-05-20T09:53:36;19.49;55.04
77467;DHT22;66564;42.482;25.548;2023-05-20T09:56:02;19.42;54.44
77467;DHT22;66564;42.482;25.548;2023-05-20T09:58:28;19.35;53.98
77467;DHT22;66564;42.482;25.548;2023-05-20T10:00:54;19.32;54.11
77467;DHT22;66564;42.482;25.548;2023-05-20T10:03:23;19.29;55.12
77467;DHT22;66564;42.482;25.548;2023-05-20T10:06:10;19.22;53.78
77467;DHT22;66564;42.482;25.548;2023-05-20T10:16:50;19.15;54.88
77467;DHT22;66564;42.482;25.548;2023-05-20T10:19:36;19.18;55.83
77467;DHT22;66564;42.482;25.548;2023-05-20T10:22:07;19.16;54.77
77467;DHT22;66564;42.482;25.548;2023-05-20T10:24:34;19.16;55.56
77467;DHT22;66564;42.482;25.548;2023-05-20T10:27:03;19.14;55.47
77467;DHT22;66564;42.482;25.548;2023-05-20T10:29:41;19.18;55.48
77467;DHT22;66564;42.482;25.548;2023-05-20T10:32:07;19.15;55.07
77467;DHT22;66564;42.482;25.548;2023-05-20T10:34:44;19.19;55.74
77467;DHT22;66564;42.482;25.548;2023-05-20T10:37:22;19.25;55.62
77467;DHT22;66564;42.482;25.548;2023-05-20T10:39:48;19.30;55.28
77467;DHT22;66564;42.482;25.548;2023-05-20T10:42:14;19.35;54.66
77467;DHT22;66564;42.482;25.548;2023-05-20T10:44:46;19.42;54.19
77467;DHT22;66564;42.482;25.548;2023-05-20T10:47:12;19.46;54.85
77467;DHT22;66564;42.482;25.548;2023-05-20T10:49:44;19.50;54.15
77467;DHT22;66564;42.482;25.548;2023-05-20T10:52:12;19.59;54.37
77467;DHT22;66564;42.482;25.548;2023-05-20T10:54:56;19.63;53.49
77467;DHT22;66564;42.482;25.548;2023-05-20T10:57:24;19.62;52.73
77467;DHT22;66564;42.482;25.548;2023-05-20T10:59:50;19.65;52.25
77467;DHT22;66564;42.482;25.548;2023-05-20T11:02:16;19.65;52.14
77467;DHT22;66564;42.482;25.548;2023-05-20T11:04:43;19.62;51.87
77467;DHT22;66564;42.482;25.548;2023-05-20T11:07:08;19.59;52.40
77467;DHT22;66564;42.482;25.548;2023-05-20T11:09:34;19.52;52.64
77467;DHT22;66564;42.482;25.548;2023-05-20T11:12:00;19.40;52.51
77467;DHT22;66564;42.482;25.548;2023-05-20T11:14:27;19.32;53.27
77467;DHT22;66564;42.482;25.548;2023-05-20T11:16:58;19.23;53.12
77467;DHT22;66564;42.482;25.548;2023-05-20T11:19:25;19.11;54.46
77467;DHT22;66564;42.482;25.548;2023-05-20T11:21:52;19.11;54.06
77467;DHT22;66564;42.482;25.548;2023-05-20T11:24:27;19.01;54.32
77467;DHT22;66564;42.482;25.548;2023-05-20T11:26:54;19.01;55.30
77467;DHT22;66564;42.482;25.548;2023-05-20T11:29:20;18.98;57.03
77467;DHT22;66564;42.482;25.548;2023-05-20T11:31:49;19.01;57.91
77467;DHT22;66564;42.482;25.548;2023-05-20T11:34:21;19.01;58.43
77467;DHT22;66564;42.482;25.548;2023-05-20T11:36:48;19.04;57.67
77467;DHT22;66564;42.482;25.548;2023-05-20T11:39:16;18.97;56.88
77467;DHT22;66564;42.482;25.548;2023-05-20T11:41:42;18.99;57.14
77467;DHT22;66564;42.482;25.548;2023-05-20T11:44:11;18.91;56.60
77467;DHT22;66564;42.482;25.548;2023-05-20T11:46:46;18.92;56.48
77467;DHT22;66564;42.482;25.548;2023-05-20T11:49:15;18.98;57.60
77467;DHT22;66564;42.482;25.548;2023-05-20T11:51:44;19.12;58.02
77467;DHT22;66564;42.482;25.548;2023-05-20T11:54:09;19.22;56.83
77467;DHT22;66564;42.482;25.548;2023-05-20T11:56:36;19.36;56.38
77467;DHT22;66564;42.482;25.548;2023-05-20T11:59:04;19.49;56.63
77467;DHT22;66564;42.482;25.548;2023-05-20T12:01:38;19.63;55.64
77467;DHT22;66564;42.482;25.548;2023-05-20T12:04:11;19.80;56.22
77467;DHT22;66564;42.482;25.548;2023-05-20T12:06:40;19.89;53.68
77467;DHT22;66564;42.482;25.548;2023-05-20T12:09:08;20.03;53.12
77467;DHT22;66564;42.482;25.548;2023-05-20T12:11:38;20.10;52.62
77467;DHT22;66564;42.482;25.548;2023-05-20T12:14:08;20.21;53.18
77467;DHT22;66564;42.482;25.548;2023-05-20T12:16:35;20.33;52.90
77467;DHT22;66564;42.482;25.548;2023-05-20T12:19:01;20.52;53.09
77467;DHT22;66564;42.482;25.548;2023-05-20T12:21:29;20.69;52.00
77467;DHT22;66564;42.482;25.548;2023-05-20T12:23:57;20.82;53.28
77467;DHT22;66564;42.482;25.548;2023-05-20T12:26:23;20.94;52.29
77467;DHT22;66564;42.482;25.548;2023-05-20T12:28:50;21.06;51.33
77467;DHT22;66564;42.482;25.548;2023-05-20T12:31:15;21.25;51.15
77467;DHT22;66564;42.482;25.548;2023-05-20T12:33:41;21.36;50.79
77467;DHT22;66564;42.482;25.548;2023-05-20T12:36:07;21.47;51.68
77467;DHT22;66564;42.482;25.548;2023-05-20T12:38:32;21.63;51.30
77467;DHT22;66564;42.482;25.548;2023-05-20T12:40:58;21.77;50.34
77467;DHT22;66564;42.482;25.548;2023-05-20T12:43:23;21.83;48.91
77467;DHT22;66564;42.482;25.548;2023-05-20T12:45:50;21.93;50.17
77467;DHT22;66564;42.482;25.548;2023-05-20T12:48:16;22.17;50.12
77467;DHT22;66564;42.482;25.548;2023-05-20T12:50:42;22.38;48.03
77467;DHT22;66564;42.482;25.548;2023-05-20T12:53:08;22.48;47.99
77467;DHT22;66564;42.482;25.548;2023-05-20T12:55:33;22.60;47.93
77467;DHT22;66564;42.482;25.548;2023-05-20T12:57:59;22.85;47.60
77467;DHT22;66564;42.482;25.548;2023-05-20T13:00:24;22.95;46.71
77467;DHT22;66564;42.482;25.548;2023-05-20T13:02:50;23.15;47.76
77467;DHT22;66564;42.482;25.548;2023-05-20T13:05:17;23.32;46.52
77467;DHT22;66564;42.482;25.548;2023-05-20T13:07:43;23.47;46.82
77467;DHT22;66564;42.482;25.548;2023-05-20T13:10:09;23.63;45.91
77467;DHT22;66564;42.482;25.548;2023-05-20T13:12:35;23.78;46.22
77467;DHT22;66564;42.482;25.548;2023-05-20T13:15:02;23.87;45.01
77467;DHT22;66564;42.482;25.548;2023-05-20T13:17:28;23.88;45.20
77467;DHT22;66564;42.482;25.548;2023-05-20T13:19:55;23.96;44.96
77467;DHT22;66564;42.482;25.548;2023-05-20T13:22:21;24.00;44.72
77467;DHT22;66564;42.482;25.548;2023-05-20T13:24:47;23.62;46.11
77467;DHT22;66564;42.482;25.548;2023-05-20T13:27:13;23.93;46.25
77467;DHT22;66564;42.482;25.548;2023-05-20T13:29:38;24.01;44.71
77467;DHT22;66564;42.482;25.548;2023-05-20T13:32:04;24.08;45.29
77467;DHT22;66564;42.482;25.548;2023-05-20T13:34:30;24.24;45.64
77467;DHT22;66564;42.482;25.548;2023-05-20T13:36:56;24.24;43.57
77467;DHT22;66564;42.482;25.548;2023-05-20T13:39:21;24.25;44.64
77467;DHT22;66564;42.482;25.548;2023-05-20T13:41:47;24.28;44.45
77467;DHT22;66564;42.482;25.548;2023-05-20T13:44:12;24.16;43.23
77467;DHT22;66564;42.482;25.548;2023-05-20T13:46:38;24.21;44.67
77467;DHT22;66564;42.482;25.548;2023-05-20T13:49:03;24.25;43.76
77467;DHT22;66564;42.482;25.548;2023-05-20T13:51:29;24.38;44.25
77467;DHT22;66564;42.482;25.548;2023-05-20T13:53:55;24.51;43.91
77467;DHT22;66564;42.482;25.548;2023-05-20T13:56:21;24.55;43.62
77467;DHT22;66564;42.482;25.548;2023-05-20T13:58:56;24.50;43.41
77467;DHT22;66564;42.482;25.548;2023-05-20T14:01:24;24.40;43.00
77467;DHT22;66564;42.482;25.548;2023-05-20T14:03:50;24.31;43.17
77467;DHT22;66564;42.482;25.548;2023-05-20T14:06:16;24.27;44.05
77467;DHT22;66564;42.482;25.548;2023-05-20T14:08:44;24.18;43.78
77467;DHT22;66564;42.482;25.548;2023-05-20T14:11:10;24.11;44.31
77467;DHT22;66564;42.482;25.548;2023-05-20T14:13:35;23.98;44.18
77467;DHT22;66564;42.482;25.548;2023-05-20T14:16:03;23.88;44.81
77467;DHT22;66564;42.482;25.548;2023-05-20T14:18:29;23.84;45.42
77467;DHT22;66564;42.482;25.548;2023-05-20T14:20:54;23.62;45.28
77467;DHT22;66564;42.482;25.548;2023-05-20T14:23:20;23.42;46.56
77467;DHT22;66564;42.482;25.548;2023-05-20T14:25:46;23.30;46.17
77467;DHT22;66564;42.482;25.548;2023-05-20T14:28:11;23.18;46.70
77467;DHT22;66564;42.482;25.548;2023-05-20T14:30:37;22.88;47.72
77467;DHT22;66564;42.482;25.548;2023-05-20T14:33:03;22.78;46.81
77467;DHT22;66564;42.482;25.548;2023-05-20T14:35:28;22.69;47.60
77467;DHT22;66564;42.482;25.548;2023-05-20T14:37:54;22.45;47.72
77467;DHT22;66564;42.482;25.548;2023-05-20T14:40:19;22.00;49.12
77467;DHT22;66564;42.482;25.548;2023-05-20T14:42:45;22.01;49.63
77467;DHT22;66564;42.482;25.548;2023-05-20T14:45:11;21.82;48.34
77467;DHT22;66564;42.482;25.548;2023-05-20T14:47:37;21.47;48.08
77467;DHT22;66564;42.482;25.548;2023-05-20T14:50:05;21.35;48.67
77467;DHT22;66564;42.482;25.548;2023-05-20T14:52:31;21.23;48.00
77467;DHT22;66564;42.482;25.548;2023-05-20T14:54:56;21.11;47.81
77467;DHT22;66564;42.482;25.548;2023-05-20T14:57:22;20.96;47.78
77467;DHT22;66564;42.482;25.548;2023-05-20T14:59:47;20.49;48.87
77467;DHT22;66564;42.482;25.548;2023-05-20T15:02:15;20.44;50.31
77467;DHT22;66564;42.482;25.548;2023-05-20T15:04:41;20.41;50.70
77467;DHT22;66564;42.482;25.548;2023-05-20T15:07:08;20.34;51.69
77467;DHT22;66564;42.482;25.548;2023-05-20T15:09:34;20.30;51.31
77467;DHT22;66564;42.482;25.548;2023-05-20T15:11:59;20.21;51.66
77467;DHT22;66564;42.482;25.548;2023-05-20T15:14:25;20.16;52.43
77467;DHT22;66564;42.482;25.548;2023-05-20T15:16:53;20.10;52.28
77467;DHT22;66564;42.482;25.548;2023-05-20T15:19:18;20.01;53.14